Time;durP1;ratioP1;P1;durP2;ratioP2;P2;SDS_P1;SDS_P2;PMS_P1;PMS_P2;Temp;Humidity;BMP_temperature;BMP_pressure;BME280_temperature;BME280_humidity;BME280_pressure;Samples;Min_cycle;Max_cycle;Signal;HPM_P1;HPM_P2
2021/10/19 00:01:57;;;;;;;12.13;6.08;;;;;;;8.72;67.56;100873.84;1647003;86;21523;-63
2021/10/19 00:04:30;;;;;;;8.50;4.62;;;;;;;8.71;67.62;100868.27;1657820;86;21352;-63
2021/10/19 00:07:09;;;;;;;9.80;4.85;;;;;;;8.72;67.47;100869.08;1658413;86;21198;-62
2021/10/19 00:09:44;;;;;;;9.83;5.40;;;;;;;8.70;67.27;100870.97;1657454;86;21392;-63
2021/10/19 00:12:21;;;;;;;10.63;5.25;;;;;;;8.69;67.31;100876.66;1658337;86;21317;-63
2021/10/19 00:15:00;;;;;;;9.05;4.83;;;;;;;8.69;67.42;100871.93;1657524;86;21207;-62
2021/10/19 00:17:34;;;;;;;10.85;5.28;;;;;;;8.68;67.55;100868.48;1657250;86;21174;-64
2021/10/19 00:20:11;;;;;;;10.97;5.70;;;;;;;8.68;67.65;100867.64;1657335;86;21293;-63
2021/10/19 00:22:44;;;;;;;11.90;5.78;;;;;;;8.68;67.82;100867.64;1658093;86;21286;-63
2021/10/19 00:25:18;;;;;;;10.80;4.85;;;;;;;8.67;68.09;100857.66;1657735;86;21868;-63
2021/10/19 00:27:55;;;;;;;13.53;5.65;;;;;;;8.67;67.97;100860.73;1658163;86;21183;-63
2021/10/19 00:30:31;;;;;;;9.53;5.05;;;;;;;8.65;68.12;100850.88;1657509;86;21317;-63
2021/10/19 00:33:05;;;;;;;11.70;5.67;;;;;;;8.63;68.14;100851.00;1658093;86;21243;-64
2021/10/19 00:35:39;;;;;;;11.93;6.17;;;;;;;8.60;67.89;100850.37;1657507;86;21230;-62
2021/10/19 00:38:14;;;;;;;13.83;6.28;;;;;;;8.55;67.96;100863.75;1659149;86;21290;-63
2021/10/19 00:40:49;;;;;;;11.57;5.30;;;;;;;8.52;68.09;100858.77;1657551;86;21297;-63
2021/10/19 00:43:26;;;;;;;10.98;5.45;;;;;;;8.52;68.16;100856.63;1658137;86;21305;-63
2021/10/19 00:46:02;;;;;;;15.30;7.37;;;;;;;8.51;68.39;100847.12;1660821;86;21205;-63
2021/10/19 00:48:40;;;;;;;11.75;6.70;;;;;;;8.51;68.46;100849.27;1658589;86;21321;-63
2021/10/19 00:51:18;;;;;;;12.15;6.67;;;;;;;8.51;68.31;100844.05;1657311;86;21235;-63
2021/10/19 00:53:55;;;;;;;12.10;6.50;;;;;;;8.50;68.20;100848.88;1657819;86;21365;-64
2021/10/19 00:56:30;;;;;;;12.25;6.30;;;;;;;8.50;68.13;100850.19;1657190;86;21186;-63
2021/10/19 00:59:08;;;;;;;9.00;5.17;;;;;;;8.49;68.11;100852.45;1638999;86;21203;-63
2021/10/19 01:01:44;;;;;;;13.15;4.90;;;;;;;8.50;68.18;100858.52;1658675;86;21816;-62
2021/10/19 01:04:25;;;;;;;9.83;4.92;;;;;;;8.51;68.25;100855.78;1645935;86;21314;-64
2021/10/19 01:07:05;;;;;;;10.75;4.47;;;;;;;8.51;68.19;100855.78;1644258;87;21279;-64
2021/10/19 01:09:43;;;;;;;10.15;5.20;;;;;;;8.52;68.20;100857.93;1642979;87;21231;-65
2021/10/19 01:12:19;;;;;;;9.53;4.62;;;;;;;8.53;68.13;100859.58;1643937;87;21802;-63
2021/10/19 01:14:59;;;;;;;11.00;5.75;;;;;;;8.53;68.16;100865.64;1643297;86;21349;-64
2021/10/19 01:17:37;;;;;;;12.13;6.35;;;;;;;8.54;68.00;100862.56;1643983;87;21301;-64
2021/10/19 01:20:27;;;;;;;12.88;6.92;;;;;;;8.55;68.01;100863.75;1644221;87;21318;-63
2021/10/19 01:23:02;;;;;;;11.85;5.80;;;;;;;8.56;67.85;100858.91;1644602;87;21846;-63
2021/10/19 01:25:36;;;;;;;10.53;5.58;;;;;;;8.59;67.78;100863.08;1649235;87;21819;-62
2021/10/19 01:28:11;;;;;;;11.87;5.83;;;;;;;8.59;67.67;100863.08;1644266;87;21291;-63
2021/10/19 01:30:46;;;;;;;13.55;5.78;;;;;;;8.59;67.49;100857.39;1643282;87;21571;-63
2021/10/19 01:33:19;;;;;;;12.95;5.62;;;;;;;8.58;67.22;100853.10;1644186;87;21246;-63
2021/10/19 01:36:00;;;;;;;12.78;5.78;;;;;;;8.56;67.33;100851.08;1642690;86;21253;-62
2021/10/19 01:38:34;;;;;;;10.70;5.45;;;;;;;8.54;67.30;100850.83;1644151;87;21302;-64
2021/10/19 01:41:11;;;;;;;16.05;5.67;;;;;;;8.52;67.34;100850.95;1643641;87;21309;-63
2021/10/19 01:43:50;;;;;;;11.70;5.62;;;;;;;8.52;67.44;100852.25;1643744;87;21329;-63
2021/10/19 01:46:30;;;;;;;14.20;6.08;;;;;;;8.52;67.46;100849.64;1643296;87;21325;-63
2021/10/19 01:49:04;;;;;;;19.35;6.72;;;;;;;8.52;67.28;100859.23;1642630;87;21199;-63
2021/10/19 01:51:41;;;;;;;12.33;6.78;;;;;;;8.49;67.20;100860.28;1643251;87;21203;-63
2021/10/19 01:54:17;;;;;;;13.35;5.90;;;;;;;8.48;67.28;100863.82;1643843;87;21326;-63
2021/10/19 01:56:51;;;;;;;12.63;6.08;;;;;;;8.48;67.14;100862.98;1643728;87;21301;-63
2021/10/19 01:59:28;;;;;;;14.70;6.75;;;;;;;8.47;67.02;100873.08;1644195;87;21841;-63
2021/10/19 02:02:02;;;;;;;13.50;6.65;;;;;;;8.43;67.02;100872.44;1642980;86;21172;-64
2021/10/19 02:04:42;;;;;;;12.88;6.47;;;;;;;8.43;66.99;100870.33;1649991;86;21341;-64
2021/10/19 02:07:18;;;;;;;15.08;6.75;;;;;;;8.42;66.89;100860.36;1659346;86;21242;-63
2021/10/19 02:09:55;;;;;;;16.90;7.17;;;;;;;8.42;66.71;100866.03;1658465;86;21215;-64
2021/10/19 02:12:28;;;;;;;15.85;7.12;;;;;;;8.42;66.85;100866.88;1657585;86;21304;-64
2021/10/19 02:15:10;;;;;;;48.48;21.87;;;;;;;8.44;67.11;100868.91;1656847;86;21214;-63
2021/10/19 02:17:44;;;;;;;102.15;44.08;;;;;;;8.46;67.04;100871.39;1657381;86;21304;-64
2021/10/19 02:20:22;;;;;;;112.72;50.60;;;;;;;8.48;67.26;100871.65;1658527;86;21187;-64
2021/10/19 02:22:58;;;;;;;98.05;43.45;;;;;;;8.48;67.55;100863.82;1657263;86;21301;-64
2021/10/19 02:25:33;;;;;;;89.90;40.95;;;;;;;8.48;67.75;100876.03;1657621;86;21341;-63
2021/10/19 02:28:09;;;;;;;58.90;24.72;;;;;;;8.47;67.79;100870.00;1657334;86;21202;-64
2021/10/19 02:30:53;;;;;;;139.25;53.48;;;;;;;8.48;67.87;100875.56;1658527;86;21293;-64
2021/10/19 02:33:28;;;;;;;41.40;18.12;;;;;;;8.48;67.91;100870.34;1658431;86;21285;-64
2021/10/19 02:36:06;;;;;;;23.87;11.33;;;;;;;8.49;67.77;100877.25;1657426;86;21179;-64
2021/10/19 02:38:43;;;;;;;19.25;9.80;;;;;;;8.49;67.72;100881.16;1658502;86;21297;-64
2021/10/19 02:41:16;;;;;;;58.28;21.48;;;;;;;8.48;67.70;100875.56;1658603;86;21808;-63
2021/10/19 02:43:52;;;;;;;243.85;70.22;;;;;;;8.48;67.70;100878.17;1658545;86;21329;-64
2021/10/19 02:46:28;;;;;;;122.53;44.05;;;;;;;8.49;67.90;100877.25;1657684;86;21281;-64
2021/10/19 02:49:05;;;;;;;169.70;65.32;;;;;;;8.51;67.96;100879.27;1658353;86;21275;-64
2021/10/19 02:51:39;;;;;;;528.17;214.63;;;;;;;8.51;67.93;100881.04;1656745;86;21190;-64
2021/10/19 02:54:12;;;;;;;504.68;214.90;;;;;;;8.51;68.01;100881.04;1658916;86;21293;-65
2021/10/19 02:56:45;;;;;;;323.23;116.33;;;;;;;8.52;68.12;100882.26;1658486;86;21316;-64
2021/10/19 02:59:23;;;;;;;264.23;94.85;;;;;;;8.54;68.16;100876.45;1658966;86;21293;-64
2021/10/19 03:01:57;;;;;;;487.35;156.43;;;;;;;8.55;68.19;100875.49;1657235;86;21199;-63
2021/10/19 03:04:39;;;;;;;347.58;108.63;;;;;;;8.56;68.19;100874.56;1658325;86;21285;-64
2021/10/19 03:07:15;;;;;;;242.93;79.53;;;;;;;8.56;68.14;100867.20;1601792;87;21197;-63
2021/10/19 03:09:52;;;;;;;193.37;66.57;;;;;;;8.55;68.06;100866.36;1656593;86;21967;-64
2021/10/19 03:12:26;;;;;;;97.53;38.13;;;;;;;8.55;68.09;100865.55;1656996;86;21175;-64
2021/10/19 03:15:01;;;;;;;166.97;58.90;;;;;;;8.52;68.10;100868.37;1658709;86;21344;-64
2021/10/19 03:17:35;;;;;;;139.95;52.45;;;;;;;8.46;68.10;100874.00;1658701;86;21352;-64
2021/10/19 03:20:12;;;;;;;69.10;31.15;;;;;;;8.41;68.10;100870.87;1658447;86;21171;-64
2021/10/19 03:22:46;;;;;;;45.15;22.45;;;;;;;8.37;68.03;100872.05;1657687;86;21313;-64
2021/10/19 03:25:21;;;;;;;87.20;36.63;;;;;;;8.35;68.04;100872.16;1658256;86;21804;-64
2021/10/19 03:27:57;;;;;;;92.25;41.20;;;;;;;8.35;68.09;100870.86;1657878;86;21313;-64
2021/10/19 03:30:30;;;;;;;;;;;;;;;8.35;67.99;100871.32;1659473;86;21186;-64
2021/10/19 03:33:05;;;;;;;43.85;21.93;;;;;;;8.35;67.98;100870.02;1658428;86;20273;-64
2021/10/19 03:35:43;;;;;;;45.15;24.07;;;;;;;8.31;67.99;100875.09;1658043;86;21312;-64
2021/10/19 03:38:21;;;;;;;34.60;19.45;;;;;;;8.30;68.01;100869.03;1657950;86;21317;-64
2021/10/19 03:40:54;;;;;;;40.08;19.85;;;;;;;8.30;67.99;100874.72;1658398;86;21364;-64
2021/10/19 03:43:32;;;;;;;37.38;19.12;;;;;;;8.28;68.02;100873.99;1657973;86;21238;-65
2021/10/19 03:46:10;;;;;;;35.85;18.57;;;;;;;8.27;68.03;100877.53;1658312;86;21175;-65
2021/10/19 03:48:49;;;;;;;96.60;45.52;;;;;;;8.24;68.15;100875.13;1657897;86;21267;-65
2021/10/19 03:51:22;;;;;;;96.05;43.83;;;;;;;8.23;68.20;100868.22;1657898;86;21356;-65
2021/10/19 03:54:02;;;;;;;75.95;33.05;;;;;;;8.20;68.21;100872.34;1657538;86;21348;-65
2021/10/19 03:56:38;;;;;;;55.83;25.10;;;;;;;8.20;68.33;100874.48;1657831;86;21293;-64
2021/10/19 03:59:16;;;;;;;60.17;27.42;;;;;;;8.22;68.32;100871.76;1657715;86;21352;-64
2021/10/19 04:01:52;;;;;;;74.85;33.28;;;;;;;8.23;68.26;100870.37;1658349;86;21183;-64
2021/10/19 04:04:27;;;;;;;72.05;31.82;;;;;;;8.24;68.42;100880.34;1657741;86;21194;-63
2021/10/19 04:07:03;;;;;;;77.15;31.70;;;;;;;8.25;68.46;100878.92;1657943;86;21171;-64
2021/10/19 04:09:39;;;;;;;33.48;15.93;;;;;;;8.27;68.48;100878.83;1657048;86;21206;-64
2021/10/19 04:12:15;;;;;;;;;;;;;;;8.28;68.45;100879.21;1657628;86;21772;-65
2021/10/19 04:14:54;;;;;;;32.48;12.13;;;;;;;8.30;68.59;100887.76;1653903;86;20324;-65
2021/10/19 04:17:26;;;;;;;19.45;9.80;;;;;;;8.29;68.63;100889.53;1653388;86;21238;-65
2021/10/19 04:20:03;;;;;;;19.57;9.10;;;;;;;8.32;68.57;100892.39;1657441;86;21246;-64
2021/10/19 04:22:37;;;;;;;37.28;17.20;;;;;;;8.35;68.54;100888.28;1657194;86;21183;-64
2021/10/19 04:25:11;;;;;;;28.98;11.48;;;;;;;8.37;68.60;100900.28;1669138;85;21191;-65
2021/10/19 04:31:56;;;;;;;20.50;9.85;;;;;;;8.42;68.33;100900.80;1677738;85;21153;-64
2021/10/19 04:38:42;;;;;;;16.05;8.90;;;;;;;8.46;68.34;100907.45;1680875;84;21312;-64
2021/10/19 04:41:15;;;;;;;17.65;8.65;;;;;;;8.50;68.08;100918.03;1672707;84;21268;-66
2021/10/19 04:43:48;;;;;;;19.00;10.15;;;;;;;8.52;67.83;100921.41;1681955;85;21226;-68
2021/10/19 04:46:23;;;;;;;20.05;8.25;;;;;;;8.54;67.83;100923.42;1661982;85;21377;-66
2021/10/19 04:49:00;;;;;;;17.48;8.65;;;;;;;8.56;67.77;100929.38;1681779;85;21504;-65
2021/10/19 04:51:34;;;;;;;16.10;7.75;;;;;;;8.61;67.73;100934.27;1681279;85;21230;-66
2021/10/19 04:54:14;;;;;;;20.60;8.15;;;;;;;8.66;67.51;100938.23;1679962;85;21210;-67
2021/10/19 04:56:48;;;;;;;13.40;7.10;;;;;;;8.70;67.43;100938.84;1677803;84;21304;-67
2021/10/19 04:59:22;;;;;;;13.75;7.45;;;;;;;8.75;67.16;100941.50;1681567;85;22010;-66
2021/10/19 05:01:56;;;;;;;15.95;7.67;;;;;;;8.79;66.99;100946.02;1709115;83;21177;-61
2021/10/19 05:08:41;;;;;;;18.25;8.63;;;;;;;8.85;66.58;100948.21;1710109;83;21148;-67
2021/10/19 05:15:10;;;;;;;25.00;11.93;;;;;;;8.96;66.09;100952.19;1720470;83;21175;-62
2021/10/19 05:17:45;;;;;;;24.82;10.72;;;;;;;9.04;65.91;100959.02;1720716;83;21348;-61
2021/10/19 05:20:19;;;;;;;19.90;9.18;;;;;;;9.07;65.67;100962.73;1720829;83;21344;-67
2021/10/19 05:27:02;;;;;;;35.58;14.50;;;;;;;9.16;65.37;100963.38;1723691;83;21136;-68
2021/10/19 05:29:35;;;;;;;30.35;12.88;;;;;;;9.28;65.15;100974.72;1721874;83;21320;-63
2021/10/19 05:32:09;;;;;;;24.43;9.90;;;;;;;9.38;64.87;100969.20;1722031;83;21317;-71
2021/10/19 05:34:42;;;;;;;;;;;;;;;9.52;64.37;100976.03;1724893;83;21329;-66
2021/10/19 05:37:15;;;;;;;47.67;20.48;;;;;;;9.66;64.04;100978.46;1722143;83;20334;-64
2021/10/19 05:39:52;;;;;;;32.28;14.60;;;;;;;9.85;63.60;100977.00;1721472;83;21199;-65
2021/10/19 05:42:32;;;;;;;31.77;15.20;;;;;;;10.14;62.91;100983.55;1719232;83;21364;-65
2021/10/19 05:45:07;;;;;;;19.60;8.93;;;;;;;10.42;61.96;100974.88;1721318;83;21258;-66
2021/10/19 05:47:42;;;;;;;;;;;;;;;10.72;61.22;100982.51;1723979;83;21504;-71
2021/10/19 05:50:16;;;;;;;;;;;;;;;11.06;60.24;100983.79;1722397;83;20307;-68
2021/10/19 05:52:50;;;;;;;17.48;7.85;;;;;;;11.38;59.33;100983.38;1721537;83;20773;-71
2021/10/19 05:59:32;;;;;;;18.02;8.13;;;;;;;12.45;56.68;100991.47;1721868;83;21429;-66
2021/10/19 06:02:09;;;;;;;18.37;7.70;;;;;;;13.95;53.65;100994.76;1721790;83;21302;-68
2021/10/19 06:04:42;;;;;;;23.12;6.45;;;;;;;14.70;51.48;100994.77;1721869;83;21200;-68
2021/10/19 06:07:15;;;;;;;9.30;5.12;;;;;;;15.49;49.55;100997.71;1721805;83;21304;-66
2021/10/19 06:09:49;;;;;;;8.00;4.60;;;;;;;16.57;46.43;101001.77;1721348;83;21306;-66
2021/10/19 06:12:22;;;;;;;;;;;;;;;17.82;44.05;100998.70;1717513;83;21228;-69
2021/10/19 06:14:54;;;;;;;11.48;5.42;;;;;;;19.05;41.38;101003.16;1712367;83;20716;-66
2021/10/19 06:17:29;;;;;;;8.43;4.92;;;;;;;20.07;38.48;100989.89;1704692;83;21501;-69
2021/10/19 06:20:03;;;;;;;8.30;5.05;;;;;;;20.90;36.67;100988.91;1705991;84;21358;-70
2021/10/19 06:26:50;;;;;;;5.95;3.87;;;;;;;22.61;33.30;100985.60;1703431;84;21197;-65
2021/10/19 06:29:24;;;;;;;7.37;3.80;;;;;;;24.03;30.84;100986.77;1704174;84;21487;-68
2021/10/19 06:36:10;;;;;;;7.15;3.75;;;;;;;25.56;27.88;100982.45;1705745;83;21168;-68
2021/10/19 06:38:47;;;;;;;5.80;3.55;;;;;;;26.38;26.20;100976.05;1705494;84;21245;-68
2021/10/19 06:41:27;;;;;;;5.92;3.67;;;;;;;26.80;25.52;100975.19;1707299;84;21409;-69
2021/10/19 06:44:10;;;;;;;7.92;3.60;;;;;;;27.22;24.51;100975.61;1706277;84;21323;-73
2021/10/19 06:46:44;;;;;;;4.60;3.50;;;;;;;27.66;24.10;100978.92;1706403;82;21216;-65
2021/10/19 06:49:18;;;;;;;6.83;3.80;;;;;;;28.07;23.57;100972.70;1705711;84;21268;-66
2021/10/19 06:51:55;;;;;;;6.53;3.67;;;;;;;28.58;22.81;100974.98;1706050;84;22098;-66
2021/10/19 06:54:30;;;;;;;4.95;3.65;;;;;;;28.96;22.06;100974.98;1706235;84;22103;-66
2021/10/19 07:01:16;;;;;;;5.05;3.70;;;;;;;29.21;21.29;100980.38;1706121;83;22014;-69
2021/10/19 07:03:49;;;;;;;5.17;3.40;;;;;;;29.40;21.18;100980.19;1706088;84;21193;-69
2021/10/19 07:10:32;;;;;;;4.15;2.65;;;;;;;29.17;20.72;100983.76;1706333;84;21137;-70
2021/10/19 07:13:10;;;;;;;5.80;3.90;;;;;;;29.24;20.64;100987.16;1704830;84;21217;-71
2021/10/19 07:15:47;;;;;;;3.17;2.20;;;;;;;29.37;20.51;100980.14;1704719;84;21217;-66
2021/10/19 07:18:22;;;;;;;3.20;2.37;;;;;;;29.46;20.08;100981.91;1705740;84;21185;-69
2021/10/19 07:20:55;;;;;;;6.40;3.10;;;;;;;29.56;20.07;100982.92;1706492;84;21327;-66
2021/10/19 07:23:28;;;;;;;12.80;6.47;;;;;;;29.77;19.90;100987.64;1706123;84;21307;-69
2021/10/19 07:26:02;;;;;;;4.72;2.80;;;;;;;29.95;19.82;100987.38;1705956;84;21373;-69
2021/10/19 07:28:37;;;;;;;3.30;2.37;;;;;;;29.84;19.50;100982.07;1705205;84;22109;-63
2021/10/19 07:35:23;;;;;;;4.10;2.42;;;;;;;29.65;19.75;100980.63;1706397;84;21124;-69
2021/10/19 07:38:00;;;;;;;4.75;2.37;;;;;;;29.48;19.63;100982.48;1706175;84;21316;-65
2021/10/19 07:40:34;;;;;;;2.20;1.75;;;;;;;29.03;19.64;100982.41;1704843;84;21320;-69
2021/10/19 07:43:10;;;;;;;2.77;1.90;;;;;;;28.48;19.46;100977.98;1704994;84;21212;-68
2021/10/19 07:45:43;;;;;;;4.92;2.17;;;;;;;28.20;19.87;100982.73;1705936;84;21200;-69
2021/10/19 07:48:19;;;;;;;2.85;2.20;;;;;;;28.40;19.92;100980.49;1704946;84;21444;-70
2021/10/19 07:50:53;;;;;;;3.35;1.95;;;;;;;28.66;19.93;100984.07;1704734;84;21201;-67
2021/10/19 07:53:27;;;;;;;9.58;5.00;;;;;;;28.99;19.73;100985.30;1704844;84;21284;-68
2021/10/19 07:56:05;;;;;;;5.35;3.42;;;;;;;29.38;19.47;100988.51;1707130;84;21706;-64
2021/10/19 07:58:40;;;;;;;4.55;2.50;;;;;;;29.81;18.82;100992.82;1684420;84;21224;-67
2021/10/19 08:01:14;;;;;;;2.90;1.85;;;;;;;30.02;18.52;100993.17;1705959;84;21320;-67
2021/10/19 08:03:47;;;;;;;3.95;2.02;;;;;;;30.01;18.16;100996.39;1704752;84;21229;-68
2021/10/19 08:06:21;;;;;;;8.15;6.62;;;;;;;29.66;18.26;101003.34;1705909;84;21192;-64
2021/10/19 08:13:08;;;;;;;3.90;1.82;;;;;;;29.74;18.14;101006.98;1709454;81;21301;-68
2021/10/19 08:15:43;;;;;;;4.10;2.08;;;;;;;29.27;18.02;101006.39;1726679;83;21313;-64
2021/10/19 08:18:18;;;;;;;3.22;2.10;;;;;;;29.32;18.48;101009.72;1725087;83;21202;-68
2021/10/19 08:20:52;;;;;;;3.35;2.10;;;;;;;29.68;18.34;101005.27;1725709;83;22172;-65
2021/10/19 08:23:27;;;;;;;5.15;1.75;;;;;;;29.71;17.76;100999.91;1726291;83;21242;-69
2021/10/19 08:26:00;;;;;;;4.33;1.30;;;;;;;29.74;17.58;101002.10;1727022;83;21361;-64
2021/10/19 08:28:39;;;;;;;3.92;1.22;;;;;;;29.75;17.23;101008.62;1725885;83;21474;-63
2021/10/19 08:31:10;;;;;;;2.15;1.30;;;;;;;29.90;16.76;101001.35;1725591;83;21583;-67
2021/10/19 08:33:45;;;;;;;5.10;1.80;;;;;;;29.25;17.17;101001.78;1705662;83;21509;-66
2021/10/19 08:36:21;;;;;;;2.10;1.30;;;;;;;28.41;17.65;100998.83;1726643;83;21313;-66
2021/10/19 08:38:57;;;;;;;1.92;1.17;;;;;;;28.21;17.68;100994.30;1725748;83;21333;-65
2021/10/19 08:41:50;;;;;;;2.10;1.20;;;;;;;28.24;17.10;100992.50;1726366;83;21734;-70
2021/10/19 08:45:04;;;;;;;6.90;2.70;;;;;;;27.42;17.85;100996.06;1732132;83;21226;-66
2021/10/19 08:47:37;;;;;;;2.42;1.32;;;;;;;26.86;18.52;100993.64;1707037;83;21333;-68
2021/10/19 08:50:37;;;;;;;;;;;;;;;26.89;18.54;100996.70;1729839;83;21353;-65
2021/10/19 08:53:45;;;;;;;3.08;1.20;;;;;;;27.06;18.43;100989.66;1726476;83;20171;-70
2021/10/19 08:56:33;;;;;;;3.65;2.00;;;;;;;27.30;17.78;100991.41;1722705;83;21624;-65
2021/10/19 08:59:13;;;;;;;3.33;1.22;;;;;;;26.58;18.07;100989.55;1725818;83;21242;-64
2021/10/19 09:01:50;;;;;;;5.50;1.20;;;;;;;25.58;18.60;100989.77;1725291;83;21218;-64
2021/10/19 09:04:29;;;;;;;3.70;0.98;;;;;;;24.72;18.23;100992.45;1705407;83;21332;-65
2021/10/19 09:07:04;;;;;;;3.80;0.78;;;;;;;23.71;18.31;101000.44;1726947;83;21320;-62
2021/10/19 09:09:37;;;;;;;1.95;0.90;;;;;;;22.59;18.96;100996.42;1725797;83;21486;-63
2021/10/19 09:12:11;;;;;;;1.40;0.80;;;;;;;21.85;19.40;100997.90;1725374;82;21381;-61
2021/10/19 09:14:45;;;;;;;3.27;1.60;;;;;;;21.33;19.89;100997.33;1711497;82;21444;-66
2021/10/19 09:17:20;;;;;;;8.95;6.05;;;;;;;20.89;20.65;100989.91;1696404;84;21461;-63
2021/10/19 09:19:53;;;;;;;4.00;2.05;;;;;;;20.93;21.00;100979.20;1695519;84;21285;-64
2021/10/19 09:22:26;;;;;;;2.15;1.17;;;;;;;20.76;20.74;100990.55;1695534;83;21324;-60
2021/10/19 09:29:13;;;;;;;1.92;1.10;;;;;;;19.90;21.85;100984.39;1696520;83;21868;-61
2021/10/19 09:31:48;;;;;;;2.42;1.50;;;;;;;19.76;21.88;100985.66;1695550;84;21379;-61
2021/10/19 09:34:23;;;;;;;4.55;1.80;;;;;;;19.79;22.28;100989.30;1695686;84;21209;-61
2021/10/19 09:41:06;;;;;;;2.50;1.20;;;;;;;20.45;21.65;100979.25;1696351;83;21154;-61
2021/10/19 09:47:50;;;;;;;2.30;0.93;;;;;;;19.56;21.74;100985.30;1697310;83;21145;-63
2021/10/19 09:50:28;;;;;;;1.60;0.95;;;;;;;18.71;22.82;100991.51;1696001;83;21476;-66
2021/10/19 09:53:01;;;;;;;2.65;1.05;;;;;;;18.50;23.20;100976.16;1696078;84;21332;-63
2021/10/19 09:55:39;;;;;;;5.40;1.35;;;;;;;18.46;23.30;100984.10;1695747;83;21386;-64
2021/10/19 09:58:16;;;;;;;9.95;1.12;;;;;;;18.40;24.00;100989.23;1694788;83;21221;-60
2021/10/19 10:00:50;;;;;;;8.98;1.35;;;;;;;18.06;24.00;100990.27;1695513;84;21374;-63
2021/10/19 10:03:24;;;;;;;4.37;1.65;;;;;;;17.55;24.19;100983.97;1682777;83;21202;-62
2021/10/19 10:06:00;;;;;;;7.33;3.25;;;;;;;16.99;24.08;101003.11;1633541;87;21332;-62
2021/10/19 10:08:34;;;;;;;9.83;4.55;;;;;;;16.50;24.48;101003.31;1621825;88;21262;-68
2021/10/19 10:15:26;;;;;;;3.35;1.98;;;;;;;15.78;24.92;100990.89;1631765;85;21490;-68
2021/10/19 10:18:03;;;;;;;4.55;1.22;;;;;;;15.40;26.29;100988.83;1666559;86;22095;-67
2021/10/19 10:20:47;;;;;;;2.30;0.93;;;;;;;15.35;26.73;100986.32;1662420;86;21225;-65
2021/10/19 10:23:26;;;;;;;4.42;1.45;;;;;;;15.35;26.57;100986.32;1665871;85;22014;-65
2021/10/19 10:26:06;;;;;;;2.65;1.30;;;;;;;15.39;26.17;100992.47;1664057;85;21639;-68
2021/10/19 10:28:40;;;;;;;3.87;1.92;;;;;;;15.42;25.52;100993.50;1643471;86;21638;-68
2021/10/19 10:31:25;;;;;;;2.17;0.88;;;;;;;15.42;25.70;100991.34;1662239;85;21297;-66
2021/10/19 10:38:13;;;;;;;1.35;0.80;;;;;;;15.14;25.13;100991.84;1663947;85;21201;-61
2021/10/19 10:40:47;;;;;;;2.85;0.78;;;;;;;14.83;25.42;101002.36;1662894;85;21348;-69
2021/10/19 10:43:28;;;;;;;1.05;0.80;;;;;;;14.60;25.65;100999.23;1660233;86;21623;-68
2021/10/19 10:46:11;;;;;;;2.37;0.90;;;;;;;14.40;25.91;101002.89;1662767;86;21595;-68
2021/10/19 10:48:45;;;;;;;3.02;1.22;;;;;;;14.19;26.39;101004.84;1664670;85;21210;-67
2021/10/19 10:51:36;;;;;;;2.70;1.40;;;;;;;14.04;26.68;101005.76;1662681;86;22055;-66
2021/10/19 10:54:16;;;;;;;3.33;1.40;;;;;;;13.99;26.91;100991.38;1662108;85;21352;-68
2021/10/19 10:56:54;;;;;;;5.25;1.85;;;;;;;13.98;26.99;100994.48;1660264;86;22080;-69
2021/10/19 10:59:29;;;;;;;2.62;1.30;;;;;;;13.93;27.14;100998.02;1661485;85;21341;-68
2021/10/19 11:02:11;;;;;;;3.42;1.30;;;;;;;13.83;26.62;101001.61;1661307;85;21431;-65
2021/10/19 11:04:55;;;;;;;8.75;4.12;;;;;;;13.72;26.48;101003.08;1664074;86;21737;-65
2021/10/19 11:11:39;;;;;;;30.15;13.55;;;;;;;13.45;27.60;101010.31;1663601;85;21229;-73
2021/10/19 11:14:20;;;;;;;12.85;5.45;;;;;;;13.34;28.10;101007.81;1663699;86;21199;-67
2021/10/19 11:16:58;;;;;;;26.40;8.95;;;;;;;13.36;27.97;101001.45;1646048;85;21554;-66
2021/10/19 11:19:37;;;;;;;46.73;17.77;;;;;;;13.38;27.53;101003.45;1671500;85;21272;-69
2021/10/19 11:22:11;;;;;;;8.13;3.25;;;;;;;13.35;27.54;100997.14;1670226;85;21519;-69
2021/10/19 11:24:46;;;;;;;4.97;1.20;;;;;;;13.34;27.73;101000.76;1670876;85;21214;-66
2021/10/19 11:27:20;;;;;;;16.95;1.50;;;;;;;13.32;28.44;101007.96;1648900;85;21399;-69
2021/10/19 11:29:54;;;;;;;6.27;2.03;;;;;;;13.27;28.99;101013.27;1651327;85;21324;-63
2021/10/19 11:32:27;;;;;;;2.57;1.10;;;;;;;13.22;29.12;101016.78;1670352;85;22019;-70
2021/10/19 11:35:03;;;;;;;2.92;0.90;;;;;;;13.17;29.50;101022.44;1650679;85;21319;-62
2021/10/19 11:37:43;;;;;;;11.95;4.78;;;;;;;13.18;29.16;101021.45;1671386;85;22217;-67
2021/10/19 11:40:20;;;;;;;6.65;2.70;;;;;;;13.21;28.94;101029.09;1671418;85;21517;-62
2021/10/19 11:42:58;;;;;;;6.53;1.62;;;;;;;13.23;29.03;101028.47;1670891;85;21520;-67
2021/10/19 11:45:36;;;;;;;5.05;1.22;;;;;;;13.25;29.32;101033.13;1671099;85;21205;-67
2021/10/19 11:48:10;;;;;;;2.55;1.07;;;;;;;13.24;29.46;101031.45;1671209;85;21209;-68
2021/10/19 11:50:48;;;;;;;1.82;0.90;;;;;;;13.29;29.31;101033.20;1650608;85;22095;-66
2021/10/19 11:57:38;;;;;;;5.78;3.08;;;;;;;13.34;29.10;101038.89;1670755;85;22026;-64
2021/10/19 12:00:12;;;;;;;6.97;2.83;;;;;;;13.31;29.32;101044.89;1671164;85;21525;-68
2021/10/19 12:02:56;;;;;;;6.50;2.30;;;;;;;13.26;29.31;101037.88;1670027;85;21257;-64
2021/10/19 12:05:31;;;;;;;3.58;1.80;;;;;;;13.15;29.69;101046.72;1669574;85;21217;-64
2021/10/19 12:08:06;;;;;;;4.03;1.45;;;;;;;13.03;30.06;101046.91;1668378;85;21514;-67
2021/10/19 12:10:44;;;;;;;4.80;1.90;;;;;;;12.91;30.34;101046.18;1646907;87;21231;-61
2021/10/19 12:13:21;;;;;;;7.62;3.27;;;;;;;12.86;30.61;101049.68;1696338;84;21558;-59
2021/10/19 12:15:57;;;;;;;14.03;5.37;;;;;;;12.84;30.05;101055.55;1697571;84;21366;-63
2021/10/19 12:18:42;;;;;;;6.33;3.08;;;;;;;12.86;29.82;101049.68;1699180;84;21346;-64
2021/10/19 12:21:22;;;;;;;6.30;2.92;;;;;;;12.93;28.69;101048.19;1699960;84;21311;-65
2021/10/19 12:24:02;;;;;;;5.37;2.58;;;;;;;13.06;28.33;101042.75;1699552;83;21225;-68
2021/10/19 12:30:47;;;;;;;4.37;1.50;;;;;;;13.26;28.89;101045.30;1700094;83;21899;-66
2021/10/19 12:33:25;;;;;;;3.17;1.20;;;;;;;13.35;28.63;101052.38;1701751;83;21347;-65
2021/10/19 12:36:09;;;;;;;8.45;1.70;;;;;;;13.37;28.84;101050.95;1699808;84;21204;-71
2021/10/19 12:38:47;;;;;;;5.78;1.37;;;;;;;13.35;29.26;101059.45;1698761;84;21507;-67
2021/10/19 12:41:21;;;;;;;4.50;1.45;;;;;;;13.24;29.94;101060.86;1702805;84;21292;-64
2021/10/19 12:43:58;;;;;;;1.92;1.05;;;;;;;13.10;30.76;101062.54;1699830;84;21503;-72
2021/10/19 12:46:32;;;;;;;2.37;0.90;;;;;;;12.98;31.34;101055.67;1700142;84;21169;-62
2021/10/19 12:53:15;;;;;;;1.47;0.90;;;;;;;12.89;31.69;101063.04;1699280;83;21248;-68
2021/10/19 12:55:51;;;;;;;1.32;0.88;;;;;;;12.81;31.99;101067.16;1700078;84;21252;-66
2021/10/19 12:58:24;;;;;;;1.37;0.97;;;;;;;12.81;32.10;101068.47;1700024;83;22113;-70
2021/10/19 13:00:58;;;;;;;1.55;0.75;;;;;;;12.77;31.87;101067.55;1700650;84;22099;-70
2021/10/19 13:03:37;;;;;;;1.60;0.80;;;;;;;12.69;31.82;101066.88;1699669;83;21197;-67
2021/10/19 13:06:15;;;;;;;3.37;1.00;;;;;;;12.63;31.77;101068.70;1700733;84;21221;-71
2021/10/19 13:12:59;;;;;;;3.62;1.00;;;;;;;12.59;31.70;101062.05;1700046;83;22017;-67
2021/10/19 13:19:43;;;;;;;19.02;8.88;;;;;;;12.39;31.12;101073.87;1689281;83;21177;-64
2021/10/19 13:22:18;;;;;;;15.53;6.70;;;;;;;12.10;31.04;101081.06;1688975;85;21185;-68
2021/10/19 13:29:03;;;;;;;6.12;1.10;;;;;;;11.75;31.38;101084.38;1691625;84;21232;-67
2021/10/19 13:35:48;;;;;;;7.90;3.27;;;;;;;11.37;31.37;101101.83;1689257;84;22046;-63
2021/10/19 13:38:21;;;;;;;7.10;2.80;;;;;;;11.18;32.13;101104.69;1689803;84;21240;-69
2021/10/19 13:40:56;;;;;;;11.88;4.60;;;;;;;11.07;32.47;101111.25;1688874;84;21193;-62
2021/10/19 13:43:33;;;;;;;7.85;3.40;;;;;;;10.95;32.86;101107.79;1690376;84;22033;-68
2021/10/19 13:46:06;;;;;;;16.32;6.92;;;;;;;10.87;33.23;101115.89;1690281;85;21194;-66
2021/10/19 13:52:50;;;;;;;5.28;2.72;;;;;;;10.71;33.29;101114.42;1690148;84;21498;-66
2021/10/19 14:03:43;;;;;;;7.03;2.50;;;;;;;10.31;34.04;101134.06;1689991;84;21515;-68